Time;durP1;ratioP1;P1;durP2;ratioP2;P2;SDS_P1;SDS_P2;PMS_P1;PMS_P2;Temp;Humidity;BMP_temperature;BMP_pressure;BME280_temperature;BME280_humidity;BME280_pressure;Samples;Min_cycle;Max_cycle;Signal;HPM_P1;HPM_P2
2022/07/11 00:02:05;;;;;;;2.28;1.48;;;;;;;16.30;74.72;99445.56;5025170;28;20545;-80
2022/07/11 00:04:32;;;;;;;1.50;1.40;;;;;;;16.30;75.04;99457.16;5009700;28;20036;-80
2022/07/11 00:06:58;;;;;;;1.08;1.00;;;;;;;16.33;75.14;99458.50;5042905;28;20057;-80
2022/07/11 00:09:24;;;;;;;1.48;1.02;;;;;;;16.11;75.06;99448.00;5026809;28;20641;-80
2022/07/11 00:11:49;;;;;;;1.15;1.10;;;;;;;16.32;74.64;99454.16;5027943;28;20033;-80
2022/07/11 00:14:16;;;;;;;1.38;1.30;;;;;;;16.28;75.05;99455.78;5027368;28;20021;-80
2022/07/11 00:16:41;;;;;;;2.28;1.40;;;;;;;16.34;74.81;99460.09;5022973;28;20037;-80
2022/07/11 00:19:07;;;;;;;1.50;1.40;;;;;;;16.26;74.97;99458.78;5025085;28;20040;-80
2022/07/11 00:21:33;;;;;;;1.00;1.00;;;;;;;15.93;76.02;99459.28;5030795;28;20112;-80
2022/07/11 00:23:59;;;;;;;1.38;1.27;;;;;;;16.06;75.30;99439.91;5007426;28;20034;-80
2022/07/11 00:26:25;;;;;;;2.33;1.13;;;;;;;16.20;75.25;99443.69;5026444;28;20404;-81
2022/07/11 00:28:50;;;;;;;1.38;1.27;;;;;;;16.16;74.75;99439.91;5027354;28;20107;-80
2022/07/11 00:31:15;;;;;;;2.30;1.20;;;;;;;16.04;75.03;99439.38;5026406;28;20033;-80
2022/07/11 00:33:41;;;;;;;1.15;0.93;;;;;;;15.91;76.27;99445.28;5011150;28;20056;-80
2022/07/11 00:36:06;;;;;;;1.52;1.40;;;;;;;16.14;75.10;99433.97;5009526;28;20091;-80
2022/07/11 00:38:32;;;;;;;1.30;1.10;;;;;;;16.20;74.86;99429.41;5009809;28;20037;-80
2022/07/11 00:40:57;;;;;;;1.85;1.23;;;;;;;16.29;75.09;99431.28;5028778;28;20068;-80
2022/07/11 00:43:30;;;;;;;3.28;1.58;;;;;;;16.29;74.60;99435.88;5024406;28;20029;-80
2022/07/11 00:45:56;;;;;;;0.98;0.98;;;;;;;16.17;75.21;99422.69;5026887;28;20040;-80
2022/07/11 00:48:21;;;;;;;1.40;1.30;;;;;;;16.25;74.43;99426.72;5010906;28;20492;-80
2022/07/11 00:50:47;;;;;;;1.20;1.20;;;;;;;16.22;74.77;99428.06;5005550;28;20056;-80
2022/07/11 00:53:12;;;;;;;2.38;1.40;;;;;;;16.00;75.20;99426.72;5023246;28;20030;-80
2022/07/11 00:55:39;;;;;;;1.15;1.00;;;;;;;15.98;75.37;99420.78;5027082;28;20466;-80
2022/07/11 00:58:05;;;;;;;4.60;1.40;;;;;;;16.02;75.04;99417.28;5027574;28;20033;-80
2022/07/11 01:00:31;;;;;;;2.13;1.58;;;;;;;16.08;74.83;99429.69;5007235;28;20064;-80
2022/07/11 01:02:57;;;;;;;1.50;1.40;;;;;;;15.96;75.27;99420.25;5028794;28;20144;-80
2022/07/11 01:05:22;;;;;;;2.03;1.02;;;;;;;15.88;75.63;99416.19;5026141;28;20033;-80
2022/07/11 01:07:47;;;;;;;1.80;1.70;;;;;;;15.85;75.45;99392.53;5027299;28;20048;-80
2022/07/11 01:10:13;;;;;;;2.60;1.27;;;;;;;16.07;74.98;99424.56;5026177;28;20567;-80
2022/07/11 01:12:38;;;;;;;1.73;1.40;;;;;;;16.17;74.73;99429.94;5013213;28;20040;-80
2022/07/11 01:15:05;;;;;;;3.20;1.48;;;;;;;16.20;74.49;99429.41;5025870;28;20065;-80
2022/07/11 01:17:31;;;;;;;1.33;1.20;;;;;;;16.13;74.92;99423.47;5010508;28;20029;-80
2022/07/11 01:19:56;;;;;;;3.60;1.92;;;;;;;16.13;74.41;99421.59;5028925;28;20079;-80
2022/07/11 01:22:24;;;;;;;1.35;1.25;;;;;;;16.09;74.68;99422.41;5025981;28;20374;-80
2022/07/11 01:24:49;;;;;;;1.40;1.27;;;;;;;16.03;74.81;99400.03;5010874;28;20025;-79
2022/07/11 01:27:15;;;;;;;2.72;1.50;;;;;;;16.09;74.61;99411.63;5007976;28;20371;-80
2022/07/11 01:29:41;;;;;;;1.40;1.30;;;;;;;15.96;75.17;99410.31;5027659;28;20391;-80
2022/07/11 01:32:07;;;;;;;1.80;1.50;;;;;;;16.15;74.95;99419.44;5012223;28;20055;-80
2022/07/11 01:34:34;;;;;;;1.98;1.75;;;;;;;16.12;74.79;99419.97;5029071;28;20037;-80
2022/07/11 01:36:59;;;;;;;2.33;1.50;;;;;;;16.15;74.55;99415.94;5018969;28;20409;-80
2022/07/11 01:39:25;;;;;;;3.67;1.40;;;;;;;16.01;74.86;99407.59;5011710;28;20148;-79
2022/07/11 01:41:50;;;;;;;3.28;1.70;;;;;;;16.16;74.59;99421.03;5006025;28;20036;-80
2022/07/11 01:44:15;;;;;;;1.60;1.48;;;;;;;16.02;74.53;99398.44;5028951;28;20033;-80
2022/07/11 01:46:41;;;;;;;1.98;1.73;;;;;;;16.04;75.04;99400.84;5023002;28;20033;-80
2022/07/11 01:49:06;;;;;;;1.75;1.65;;;;;;;15.87;75.25;99401.16;5009876;28;20033;-80
2022/07/11 01:51:34;;;;;;;1.52;1.42;;;;;;;16.09;74.71;99408.94;5021179;28;20029;-80
2022/07/11 01:53:59;;;;;;;3.25;1.58;;;;;;;16.13;74.92;99410.84;5025682;28;20017;-80
2022/07/11 01:56:27;;;;;;;1.98;1.80;;;;;;;16.01;74.40;99394.13;5022451;28;20044;-80
2022/07/11 01:58:52;;;;;;;3.05;1.40;;;;;;;15.85;75.03;99402.47;5011640;28;20029;-80
2022/07/11 02:01:18;;;;;;;3.95;1.90;;;;;;;15.84;75.48;99417.81;5007103;28;20478;-80
2022/07/11 02:03:43;;;;;;;2.72;2.38;;;;;;;15.56;76.52;99411.06;5011277;28;20033;-80
2022/07/11 02:06:11;;;;;;;3.47;2.13;;;;;;;15.75;76.07;99419.44;5039398;28;20029;-80
2022/07/11 02:08:37;;;;;;;2.88;2.00;;;;;;;15.77;75.57;99411.09;5025364;28;20065;-80
2022/07/11 02:11:02;;;;;;;2.90;1.88;;;;;;;15.82;75.07;99409.22;5031352;28;20510;-80
2022/07/11 02:13:28;;;;;;;5.43;2.45;;;;;;;15.62;76.72;99406.50;5000480;28;20126;-80
2022/07/11 02:15:54;;;;;;;6.30;3.17;;;;;;;15.60;76.62;99414.03;5029026;28;20044;-80
2022/07/11 02:18:20;;;;;;;2.45;2.25;;;;;;;15.73;75.54;99408.94;5028008;28;20025;-80
2022/07/11 02:20:46;;;;;;;6.15;2.42;;;;;;;15.87;75.27;99419.16;5027729;28;20163;-80
2022/07/11 02:23:12;;;;;;;2.88;2.15;;;;;;;15.80;75.18;99400.59;5017850;28;20033;-80
2022/07/11 02:25:38;;;;;;;5.78;2.35;;;;;;;15.75;75.77;99411.34;5029536;28;20048;-80
2022/07/11 02:28:08;;;;;;;3.60;2.30;;;;;;;15.77;75.29;99401.13;5030029;28;20075;-80
2022/07/11 02:30:34;;;;;;;2.13;2.03;;;;;;;15.71;75.87;99402.19;4997766;28;20069;-80
2022/07/11 02:33:00;;;;;;;2.72;2.15;;;;;;;15.62;75.68;99391.16;5029726;28;20563;-80
2022/07/11 02:35:26;;;;;;;2.75;2.22;;;;;;;15.82;75.45;99403.81;5013769;28;20030;-80
2022/07/11 02:37:51;;;;;;;3.90;2.65;;;;;;;15.62;75.55;99377.72;5026129;28;20438;-80
2022/07/11 02:40:17;;;;;;;2.92;2.42;;;;;;;15.81;75.34;99410.31;5026087;28;20551;-80
2022/07/11 02:42:42;;;;;;;9.05;2.40;;;;;;;15.61;75.61;99392.25;5028132;28;20057;-81
2022/07/11 02:45:08;;;;;;;3.70;2.63;;;;;;;15.61;75.28;99391.44;5027330;28;20693;-80
2022/07/11 02:47:39;;;;;;;4.63;2.38;;;;;;;15.64;75.48;99397.09;5027364;28;20032;-80
2022/07/11 02:50:09;;;;;;;5.57;1.73;;;;;;;15.54;75.75;99394.38;5027030;28;20033;-80
2022/07/11 02:52:35;;;;;;;4.53;2.60;;;;;;;15.58;75.44;99397.34;5024467;28;20020;-79
2022/07/11 02:55:00;;;;;;;4.07;2.08;;;;;;;15.54;75.17;99393.56;5030185;28;20029;-80
2022/07/11 02:57:26;;;;;;;3.60;2.30;;;;;;;15.51;75.70;99391.41;4997962;28;20025;-80
2022/07/11 02:59:51;;;;;;;4.88;2.45;;;;;;;15.46;75.20;99394.09;5010249;28;20064;-80
2022/07/11 03:02:17;;;;;;;4.25;2.40;;;;;;;15.40;75.80;99392.44;5024866;28;20543;-80
2022/07/11 03:04:42;;;;;;;7.47;2.60;;;;;;;15.30;75.73;99397.78;5031100;28;20128;-80
2022/07/11 03:07:07;;;;;;;4.47;2.17;;;;;;;15.34;76.12;99409.63;4993024;28;20036;-80
2022/07/11 03:09:33;;;;;;;5.72;2.60;;;;;;;15.46;75.75;99413.75;5024797;28;20027;-80
2022/07/11 03:11:58;;;;;;;4.43;2.47;;;;;;;15.33;75.62;99399.97;5026234;28;20026;-80
2022/07/11 03:14:24;;;;;;;5.85;2.50;;;;;;;15.13;75.99;99402.59;5001088;28;20026;-80
2022/07/11 03:16:49;;;;;;;4.32;2.67;;;;;;;15.06;76.43;99410.09;4994303;28;20041;-80
2022/07/11 03:19:14;;;;;;;4.43;2.63;;;;;;;15.09;76.74;99409.56;5006746;28;20025;-80
2022/07/11 03:21:40;;;;;;;5.03;2.55;;;;;;;15.06;76.16;99402.03;5028387;28;20042;-79
2022/07/11 03:24:05;;;;;;;4.40;2.65;;;;;;;15.12;76.15;99399.09;5012794;28;20397;-80
2022/07/11 03:26:31;;;;;;;6.03;2.90;;;;;;;15.27;75.54;99406.38;5010283;28;20032;-80
2022/07/11 03:28:56;;;;;;;6.40;2.50;;;;;;;15.20;75.71;99411.22;5010030;28;20033;-80
2022/07/11 03:31:21;;;;;;;2.88;2.50;;;;;;;15.17;76.08;99417.94;5009736;28;20053;-80
2022/07/11 03:33:47;;;;;;;5.35;2.55;;;;;;;15.03;76.17;99414.13;5023756;28;20124;-80
2022/07/11 03:36:12;;;;;;;4.40;2.58;;;;;;;15.16;75.89;99404.75;5024006;28;20079;-80
2022/07/11 03:38:38;;;;;;;5.47;2.55;;;;;;;15.16;76.30;99415.53;5022996;28;20129;-80
2022/07/11 03:41:04;;;;;;;4.32;2.80;;;;;;;15.10;76.21;99416.56;5008708;28;20033;-80
2022/07/11 03:43:30;;;;;;;7.60;3.50;;;;;;;15.15;76.61;99411.22;5008866;28;20038;-80
2022/07/11 03:45:55;;;;;;;4.85;2.97;;;;;;;15.14;76.08;99407.69;5031149;28;20051;-81
2022/07/11 03:48:21;;;;;;;4.20;3.30;;;;;;;15.40;75.46;99400.50;5011348;28;20061;-80
2022/07/11 03:50:47;;;;;;;5.70;2.92;;;;;;;15.30;75.71;99397.78;5023505;28;20390;-80
2022/07/11 03:53:13;;;;;;;4.35;3.03;;;;;;;15.15;76.20;99389.69;5022004;28;20140;-80
2022/07/11 03:55:39;;;;;;;3.15;2.80;;;;;;;15.20;76.05;99379.75;5027336;28;20488;-80
2022/07/11 03:58:04;;;;;;;5.78;3.40;;;;;;;15.15;75.82;99365.50;5035405;28;20436;-80
2022/07/11 04:00:30;;;;;;;5.43;3.08;;;;;;;15.38;76.08;99421.47;5033069;28;20033;-79
2022/07/11 04:02:55;;;;;;;6.50;3.22;;;;;;;15.28;76.00;99389.19;5022844;28;20030;-80
2022/07/11 04:05:21;;;;;;;13.63;3.45;;;;;;;15.39;75.35;99385.44;5020181;28;20037;-80
2022/07/11 04:07:46;;;;;;;2.95;2.75;;;;;;;15.13;75.65;99341.56;5023136;28;20064;-79
2022/07/11 04:10:11;;;;;;;6.25;3.13;;;;;;;15.48;75.92;99403.53;5025568;28;20041;-79
2022/07/11 04:12:37;;;;;;;3.95;3.08;;;;;;;15.47;76.06;99398.41;5028275;28;20104;-80
2022/07/11 04:15:06;;;;;;;3.35;3.05;;;;;;;15.38;76.14;99392.69;5008158;28;20475;-79
2022/07/11 04:17:31;;;;;;;3.65;2.97;;;;;;;15.50;76.06;99411.34;5022765;28;20546;-80
2022/07/11 04:19:57;;;;;;;3.83;2.97;;;;;;;15.58;75.63;99395.47;5023934;28;20029;-80
2022/07/11 04:22:23;;;;;;;5.10;3.13;;;;;;;15.73;75.19;99400.03;5009746;28;20045;-79
2022/07/11 04:24:48;;;;;;;9.88;3.55;;;;;;;15.48;75.74;99400.03;5010004;28;20030;-80
2022/07/11 04:27:13;;;;;;;5.05;3.47;;;;;;;15.59;75.78;99405.16;5022096;28;20033;-80
2022/07/11 04:29:39;;;;;;;4.00;2.90;;;;;;;15.43;76.58;99406.22;5024555;28;20099;-80
2022/07/11 04:32:05;;;;;;;4.88;2.97;;;;;;;15.47;76.33;99406.47;5022429;28;20037;-80
2022/07/11 04:34:31;;;;;;;6.13;3.40;;;;;;;15.40;77.93;99411.25;5030393;28;20038;-80
2022/07/11 04:36:56;;;;;;;5.88;3.25;;;;;;;15.74;75.52;99409.75;5027170;28;20107;-80
2022/07/11 04:39:22;;;;;;;5.85;3.88;;;;;;;15.45;77.27;99417.50;5008633;28;20371;-80
2022/07/11 04:41:47;;;;;;;7.22;3.40;;;;;;;15.15;78.08;99406.63;5029685;28;20458;-80
2022/07/11 04:44:13;;;;;;;5.57;3.63;;;;;;;15.77;75.37;99393.88;5030512;28;20033;-79
2022/07/11 04:46:38;;;;;;;5.57;3.28;;;;;;;15.76;75.16;99412.97;5024818;28;20080;-79
2022/07/11 04:49:04;;;;;;;5.22;3.15;;;;;;;15.77;75.49;99418.09;5024920;28;20139;-80
2022/07/11 04:51:29;;;;;;;5.65;3.38;;;;;;;15.71;75.49;99408.41;5030649;28;20077;-80
2022/07/11 04:53:54;;;;;;;5.40;2.95;;;;;;;15.83;75.24;99423.47;4999083;28;20041;-80
2022/07/11 04:56:20;;;;;;;6.70;3.67;;;;;;;15.65;76.08;99422.94;5009565;28;20481;-80
2022/07/11 04:58:45;;;;;;;9.77;4.05;;;;;;;15.40;76.98;99398.63;5030355;28;20040;-80
2022/07/11 05:01:11;;;;;;;9.38;4.22;;;;;;;14.69;80.86;99434.38;5029005;28;20030;-79
2022/07/11 05:03:36;;;;;;;4.55;3.35;;;;;;;14.59;81.04;99408.25;5026976;28;20044;-79
2022/07/11 05:06:03;;;;;;;4.63;3.75;;;;;;;14.84;80.67;99418.34;5010901;28;20044;-80
2022/07/11 05:08:29;;;;;;;9.82;3.53;;;;;;;15.33;78.39;99427.66;5017221;28;20026;-80
2022/07/11 05:10:55;;;;;;;7.05;3.88;;;;;;;15.24;78.82;99431.13;5023933;28;20667;-80
2022/07/11 05:13:20;;;;;;;9.02;4.93;;;;;;;15.19;79.00;99431.94;5026855;28;20032;-80
2022/07/11 05:15:45;;;;;;;6.85;3.53;;;;;;;15.57;77.41;99426.13;5025371;28;20037;-80
2022/07/11 05:18:11;;;;;;;3.58;3.22;;;;;;;16.08;75.41;99443.13;5024607;28;20030;-79
2022/07/11 05:20:37;;;;;;;5.32;4.13;;;;;;;15.66;76.92;99446.06;5026604;28;20414;-80
2022/07/11 05:23:02;;;;;;;9.85;3.85;;;;;;;15.71;76.44;99439.88;5024324;28;20481;-80
2022/07/11 05:25:28;;;;;;;6.47;3.50;;;;;;;15.84;75.64;99430.47;5010774;28;20159;-80
2022/07/11 05:27:53;;;;;;;7.13;3.92;;;;;;;15.99;75.80;99449.34;5023319;28;20053;-80
2022/07/11 05:30:18;;;;;;;5.25;3.55;;;;;;;15.60;76.82;99435.56;5005060;28;20045;-80
2022/07/11 05:32:44;;;;;;;7.93;3.53;;;;;;;15.67;76.31;99428.03;5027767;28;20021;-80
2022/07/11 05:35:10;;;;;;;3.63;3.20;;;;;;;15.84;75.85;99431.28;5025420;28;20021;-79
2022/07/11 05:37:35;;;;;;;6.10;4.00;;;;;;;15.47;77.79;99431.50;5004607;28;20793;-80
2022/07/11 05:40:01;;;;;;;5.50;3.83;;;;;;;15.45;77.51;99440.91;5026602;28;20040;-80
2022/07/11 05:42:28;;;;;;;5.55;3.80;;;;;;;15.97;75.64;99421.84;5041531;28;20040;-80
2022/07/11 05:44:54;;;;;;;6.22;4.30;;;;;;;15.57;77.28;99441.50;5024128;28;20033;-81
2022/07/11 05:47:19;;;;;;;4.32;3.75;;;;;;;15.82;75.98;99452.28;5024535;28;20025;-80
2022/07/11 05:49:44;;;;;;;7.03;3.63;;;;;;;15.34;78.44;99447.28;5027410;28;20134;-80
2022/07/11 05:52:10;;;;;;;8.48;3.92;;;;;;;15.39;78.03;99448.13;5010947;28;20045;-80
2022/07/11 05:54:35;;;;;;;3.58;3.28;;;;;;;16.11;75.13;99441.78;5026172;28;20067;-80
2022/07/11 05:57:03;;;;;;;3.53;2.97;;;;;;;15.81;75.78;99456.06;4994845;28;20037;-80
2022/07/11 05:59:29;;;;;;;3.53;2.85;;;;;;;15.61;76.77;99437.19;5025523;28;20033;-80
2022/07/11 06:01:55;;;;;;;7.18;3.28;;;;;;;15.55;77.05;99462.47;5006672;28;20050;-80
2022/07/11 06:04:21;;;;;;;3.97;3.28;;;;;;;16.12;74.93;99456.91;5023118;28;20176;-79
2022/07/11 06:06:47;;;;;;;6.53;3.47;;;;;;;15.99;76.03;99452.81;5025322;28;20454;-80
2022/07/11 06:09:12;;;;;;;7.53;3.50;;;;;;;15.88;75.96;99456.59;5011975;28;20040;-80
2022/07/11 06:11:38;;;;;;;3.85;3.42;;;;;;;16.19;74.76;99455.53;5006908;28;20037;-80
2022/07/11 06:14:05;;;;;;;3.85;3.13;;;;;;;16.28;73.89;99437.75;5022012;28;20385;-80
2022/07/11 06:16:31;;;;;;;7.20;3.58;;;;;;;16.18;75.76;99448.53;5034715;28;20064;-80
2022/07/11 06:18:57;;;;;;;5.53;3.28;;;;;;;16.38;73.65;99445.03;5008700;28;20045;-80
2022/07/11 06:21:22;;;;;;;5.90;3.25;;;;;;;16.03;75.92;99464.66;5009035;28;20524;-80
2022/07/11 06:23:47;;;;;;;2.90;2.60;;;;;;;16.12;75.26;99460.38;5019083;28;20092;-79
2022/07/11 06:26:15;;;;;;;4.70;3.08;;;;;;;15.68;78.25;99453.88;5026968;28;20030;-80
2022/07/11 06:28:41;;;;;;;4.63;2.65;;;;;;;15.71;77.33;99443.38;4995541;28;20088;-79
2022/07/11 06:31:07;;;;;;;2.90;2.60;;;;;;;15.91;75.20;99445.28;5035156;28;20079;-80
2022/07/11 06:33:37;;;;;;;3.85;2.88;;;;;;;16.37;74.02;99454.19;5021110;28;20586;-80
2022/07/11 06:36:04;;;;;;;3.35;2.55;;;;;;;16.42;73.80;99471.13;5016243;28;20104;-80
2022/07/11 06:38:29;;;;;;;3.70;2.45;;;;;;;16.30;74.34;99459.84;5014233;28;20026;-80
2022/07/11 06:40:55;;;;;;;3.38;2.50;;;;;;;16.47;73.54;99471.13;5032015;28;20548;-80
2022/07/11 06:43:21;;;;;;;5.60;2.50;;;;;;;16.55;73.64;99469.00;5028327;28;20035;-80
2022/07/11 06:45:47;;;;;;;2.60;2.40;;;;;;;16.39;73.75;99463.59;5030446;28;21714;-80
2022/07/11 06:48:13;;;;;;;4.40;2.03;;;;;;;16.09;76.67;99479.78;5008708;28;20037;-80
2022/07/11 06:50:39;;;;;;;2.28;2.08;;;;;;;16.43;73.55;99461.97;5028598;28;20137;-80
2022/07/11 06:53:05;;;;;;;6.10;2.83;;;;;;;16.66;73.29;99479.50;5010023;28;20129;-80
2022/07/11 06:55:32;;;;;;;4.00;2.03;;;;;;;16.60;73.35;99469.00;5027396;28;20041;-80
2022/07/11 06:57:57;;;;;;;2.10;1.90;;;;;;;16.48;73.23;99469.25;5027650;28;20480;-80
2022/07/11 07:00:23;;;;;;;2.25;1.80;;;;;;;16.39;73.98;99479.78;5030129;28;20033;-80
2022/07/11 07:02:48;;;;;;;2.38;2.17;;;;;;;15.87;76.49;99460.38;5028365;28;20499;-80
2022/07/11 07:05:14;;;;;;;3.53;2.20;;;;;;;16.17;75.94;99467.66;5012022;28;20037;-80
2022/07/11 07:07:39;;;;;;;2.97;2.40;;;;;;;16.16;75.41;99477.59;5030666;28;20078;-80
2022/07/11 07:10:05;;;;;;;2.85;1.90;;;;;;;16.54;74.08;99478.97;5030424;28;20033;-80
2022/07/11 07:12:31;;;;;;;3.38;2.00;;;;;;;16.64;73.62;99468.19;5024229;28;20076;-80
2022/07/11 07:14:59;;;;;;;2.95;1.88;;;;;;;16.31;75.49;99487.59;5025125;28;20088;-80
2022/07/11 07:17:24;;;;;;;1.73;1.63;;;;;;;16.24;74.77;99465.50;5012610;28;20043;-80
2022/07/11 07:19:50;;;;;;;4.15;1.83;;;;;;;16.08;77.10;99464.69;5014019;28;20041;-81
2022/07/11 07:22:16;;;;;;;1.63;1.52;;;;;;;16.55;74.66;99482.47;5006264;28;20034;-80
2022/07/11 07:24:45;;;;;;;3.90;1.90;;;;;;;16.66;72.94;99467.91;5005787;28;20379;-80
2022/07/11 07:27:10;;;;;;;2.58;1.92;;;;;;;16.71;73.38;99471.41;5028149;28;20064;-80
2022/07/11 07:29:36;;;;;;;2.03;1.88;;;;;;;16.32;74.89;99465.75;5028707;28;20057;-80
2022/07/11 07:32:02;;;;;;;2.45;2.28;;;;;;;16.09;78.16;99474.41;5007799;28;20026;-81
2022/07/11 07:34:28;;;;;;;1.63;1.50;;;;;;;16.32;75.34;99484.63;4998714;28;20034;-80
2022/07/11 07:36:53;;;;;;;4.28;1.95;;;;;;;16.91;72.76;99489.41;5023703;28;20029;-80
2022/07/11 07:39:19;;;;;;;1.70;1.60;;;;;;;16.79;73.25;99470.03;5010678;28;20026;-80
2022/07/11 07:41:44;;;;;;;1.70;1.58;;;;;;;16.93;72.27;99485.38;4996741;28;20070;-80
2022/07/11 07:44:10;;;;;;;3.15;1.63;;;;;;;16.67;75.51;99483.81;5025193;28;20033;-80
2022/07/11 07:46:36;;;;;;;1.98;1.67;;;;;;;16.41;76.76;99485.69;5024494;28;20545;-80
2022/07/11 07:49:02;;;;;;;4.07;1.80;;;;;;;15.76;79.56;99491.03;5012077;28;20113;-80
2022/07/11 07:51:28;;;;;;;1.85;1.50;;;;;;;16.10;76.51;99481.38;4995481;28;20962;-80
2022/07/11 07:53:54;;;;;;;2.47;1.60;;;;;;;16.71;74.31;99494.88;5007843;28;20037;-80
2022/07/11 07:56:20;;;;;;;3.47;1.70;;;;;;;16.37;76.81;99490.03;5020844;28;20030;-80
2022/07/11 07:58:45;;;;;;;5.45;2.70;;;;;;;15.99;78.70;99490.53;5030768;28;20072;-80
2022/07/11 08:03:55;;;;;;;2.20;1.90;;;;;;;15.89;79.65;99490.53;5031775;28;20040;-80
2022/07/11 08:06:21;;;;;;;1.70;1.55;;;;;;;15.00;82.15;99496.09;5019289;28;20033;-80
2022/07/11 08:08:46;;;;;;;5.03;2.08;;;;;;;14.97;83.73;99502.00;5020533;28;20048;-80
2022/07/11 08:11:12;;;;;;;2.53;1.73;;;;;;;15.10;83.89;99497.22;5032025;28;20030;-80
2022/07/11 08:13:38;;;;;;;2.78;1.90;;;;;;;15.05;84.09;99511.44;5027290;28;20044;-80
2022/07/11 08:16:05;;;;;;;3.75;2.55;;;;;;;14.86;84.64;99507.59;5032209;28;20473;-80
2022/07/11 08:18:31;;;;;;;3.70;2.38;;;;;;;14.99;84.60;99499.06;5022593;28;20132;-80
2022/07/11 08:20:56;;;;;;;1.90;1.80;;;;;;;14.84;84.93;99494.41;5014232;28;20104;-80
2022/07/11 08:23:22;;;;;;;3.13;2.30;;;;;;;14.97;84.84;99509.25;5013627;28;20075;-80
2022/07/11 08:25:47;;;;;;;3.95;2.53;;;;;;;14.60;86.12;99490.50;5030034;28;20525;-80
2022/07/11 08:28:13;;;;;;;2.55;2.35;;;;;;;14.92;86.08;99511.91;5009085;28;20033;-80
2022/07/11 08:30:38;;;;;;;1.70;1.60;;;;;;;15.14;85.36;99515.25;5031210;28;20048;-80
2022/07/11 08:33:03;;;;;;;2.00;1.90;;;;;;;15.19;84.97;99514.47;5026474;28;20037;-80
2022/07/11 08:35:29;;;;;;;3.13;2.13;;;;;;;15.33;83.96;99497.59;5024549;28;20042;-79
2022/07/11 08:37:54;;;;;;;4.32;2.45;;;;;;;15.24;84.69;99488.44;5023123;28;20438;-80
2022/07/11 08:40:20;;;;;;;2.33;2.13;;;;;;;15.25;84.08;99505.34;5011280;28;20033;-80
2022/07/11 08:42:46;;;;;;;1.52;1.42;;;;;;;15.50;82.03;99517.06;5009209;28;20105;-80
2022/07/11 08:45:16;;;;;;;3.75;2.35;;;;;;;14.91;85.85;99511.13;5024627;28;20034;-80
2022/07/11 08:47:43;;;;;;;4.43;2.25;;;;;;;14.88;87.20;99522.38;4996898;28;20026;-80
2022/07/11 08:50:12;;;;;;;3.65;2.65;;;;;;;15.04;85.88;99517.91;5027878;28;20543;-80
2022/07/11 08:52:38;;;;;;;3.10;2.80;;;;;;;15.20;86.35;99518.81;5026236;28;20119;-80
2022/07/11 08:55:07;;;;;;;2.83;2.63;;;;;;;15.00;87.41;99508.75;5023477;28;20033;-80
2022/07/11 08:57:36;;;;;;;4.35;2.97;;;;;;;14.70;88.45;99517.41;5009175;28;20029;-80
2022/07/11 09:00:05;;;;;;;5.90;3.53;;;;;;;14.92;87.28;99517.28;5027172;28;20384;-80
2022/07/11 09:02:32;;;;;;;3.65;3.35;;;;;;;14.74;88.15;99515.03;5022187;28;20972;-80
2022/07/11 09:04:58;;;;;;;6.78;2.97;;;;;;;14.83;88.30;99529.63;5025770;28;20053;-80
2022/07/11 09:07:23;;;;;;;5.78;3.03;;;;;;;14.85;88.09;99520.19;5028738;28;20084;-80
2022/07/11 09:09:49;;;;;;;6.15;2.97;;;;;;;14.62;89.16;99517.91;4991509;28;20037;-79
2022/07/11 09:12:16;;;;;;;3.28;2.97;;;;;;;14.68;88.51;99521.44;5008974;28;20033;-80
2022/07/11 09:14:49;;;;;;;4.63;3.28;;;;;;;14.63;89.95;99518.72;5022342;28;20053;-80
2022/07/11 09:17:15;;;;;;;4.25;2.55;;;;;;;15.41;84.03;99531.25;5022788;28;20590;-81
2022/07/11 09:19:41;;;;;;;5.15;2.13;;;;;;;15.94;81.98;99522.03;5029837;28;20036;-81
2022/07/11 09:27:42;;;;;;;4.03;3.47;;;;;;;14.60;89.84;99530.78;5024086;28;20048;-84
2022/07/11 09:30:20;;;;;;;3.72;2.45;;;;;;;14.82;89.07;99542.25;5025405;28;20120;-85
2022/07/11 09:33:12;;;;;;;3.08;1.95;;;;;;;14.07;90.89;99533.50;5017435;28;20035;-83
2022/07/11 09:35:41;;;;;;;5.30;2.30;;;;;;;14.87;88.59;99542.25;5024852;28;20033;-83
2022/07/11 09:38:16;;;;;;;2.50;2.30;;;;;;;14.20;91.06;99531.22;5028145;28;20041;-84
2022/07/11 09:40:46;;;;;;;3.60;1.88;;;;;;;14.64;90.01;99526.53;5023951;28;20129;-83
2022/07/11 09:43:12;;;;;;;1.27;1.17;;;;;;;14.76;88.23;99537.91;5026210;28;20392;-82
2022/07/11 09:45:39;;;;;;;3.30;1.40;;;;;;;14.71;88.61;99515.53;5024522;28;20025;-82
2022/07/11 09:48:09;;;;;;;1.20;1.20;;;;;;;15.04;87.61;99536.72;5021133;28;21343;-83
2022/07/11 09:50:35;;;;;;;3.92;1.40;;;;;;;15.43;84.96;99529.09;5008846;28;20493;-83
2022/07/11 09:53:07;;;;;;;2.60;1.60;;;;;;;15.53;85.58;99532.69;5029810;28;20017;-83
2022/07/11 09:55:46;;;;;;;1.50;1.13;;;;;;;15.73;85.24;99538.13;5029904;28;20112;-83
2022/07/11 09:58:16;;;;;;;2.00;1.30;;;;;;;15.96;85.16;99533.34;5037260;28;20043;-83
2022/07/11 10:00:43;;;;;;;1.30;1.20;;;;;;;15.98;84.05;99540.09;5024716;28;20052;-83
2022/07/11 10:03:10;;;;;;;1.70;1.05;;;;;;;16.33;80.73;99525.84;5029964;28;20037;-83
2022/07/11 10:05:37;;;;;;;1.42;1.33;;;;;;;16.72;80.26;99520.72;5030614;28;20514;-82
2022/07/11 10:08:04;;;;;;;0.90;0.90;;;;;;;16.92;77.51;99502.63;5034747;28;20033;-82
2022/07/11 10:10:32;;;;;;;1.90;1.20;;;;;;;17.22;77.09;99532.22;5017269;28;20791;-82
2022/07/11 10:12:58;;;;;;;0.85;0.82;;;;;;;17.16;77.67;99541.41;5034234;28;20026;-82
2022/07/11 10:15:35;;;;;;;1.58;0.90;;;;;;;17.24;77.21;99526.53;5033355;28;20028;-82
2022/07/11 10:18:26;;;;;;;0.95;0.70;;;;;;;16.85;78.11;99530.97;5017060;28;20043;-83
2022/07/11 10:21:15;;;;;;;3.83;1.20;;;;;;;17.27;77.15;99528.72;5028936;28;20029;-83
2022/07/11 10:23:45;;;;;;;1.30;0.70;;;;;;;17.39;75.08;99521.09;5034014;28;20128;-82
2022/07/11 10:26:39;;;;;;;1.65;0.82;;;;;;;17.17;77.47;99534.94;5032484;28;20021;-82
2022/07/11 10:29:15;;;;;;;0.80;0.80;;;;;;;17.21;76.29;99527.13;5035616;28;20381;-82
2022/07/11 10:31:41;;;;;;;2.28;0.80;;;;;;;17.50;76.52;99536.19;5029037;28;20033;-82
2022/07/11 10:34:10;;;;;;;0.55;0.55;;;;;;;17.52;77.36;99536.72;5034478;28;20026;-82
2022/07/11 10:36:41;;;;;;;1.30;0.70;;;;;;;17.58;77.37;99542.91;5034436;28;20025;-83
2022/07/11 10:39:16;;;;;;;2.05;0.70;;;;;;;18.02;74.93;99529.44;5032930;28;20041;-82
2022/07/11 10:41:41;;;;;;;2.55;0.85;;;;;;;18.07;75.04;99534.81;5037715;28;20036;-83
2022/07/11 10:44:07;;;;;;;0.50;0.43;;;;;;;18.12;74.58;99534.78;5032967;28;20033;-82
2022/07/11 10:46:35;;;;;;;1.17;0.65;;;;;;;18.13;74.10;99536.41;5029292;28;20029;-82
2022/07/11 10:49:15;;;;;;;0.85;0.70;;;;;;;18.39;73.42;99538.63;5014541;28;20029;-82
2022/07/11 10:51:41;;;;;;;1.33;0.65;;;;;;;17.84;73.71;99541.72;5031440;28;20030;-82
2022/07/11 10:54:41;;;;;;;5.10;0.60;;;;;;;17.92;74.05;99541.94;5024193;28;20385;-82
2022/07/11 10:57:09;;;;;;;1.75;0.70;;;;;;;17.56;73.54;99548.56;5030530;28;20485;-82
2022/07/11 10:59:54;;;;;;;0.88;0.68;;;;;;;18.38;73.60;99536.19;5038458;28;20104;-83
2022/07/11 11:02:20;;;;;;;3.10;0.50;;;;;;;18.67;71.97;99529.75;5026952;28;20034;-82
2022/07/11 11:04:52;;;;;;;1.58;0.70;;;;;;;18.89;71.29;99542.84;5015791;28;20037;-82
2022/07/11 11:07:40;;;;;;;0.63;0.63;;;;;;;19.03;71.86;99545.66;5021519;28;20113;-81
2022/07/11 11:10:17;;;;;;;1.30;0.45;;;;;;;19.01;70.60;99547.84;5029179;28;20018;-82
2022/07/11 11:13:05;;;;;;;1.05;0.60;;;;;;;18.66;70.79;99535.44;5035922;28;20036;-82
2022/07/11 11:15:35;;;;;;;2.85;0.68;;;;;;;18.84;68.87;99537.47;5034720;28;20172;-82
2022/07/11 11:18:23;;;;;;;0.35;0.35;;;;;;;19.45;69.26;99540.34;5036724;28;20021;-82
2022/07/11 11:20:57;;;;;;;1.13;0.82;;;;;;;18.92;70.37;99533.31;5036377;28;20140;-82
2022/07/11 11:23:24;;;;;;;0.88;0.65;;;;;;;18.77;70.03;99526.16;5027709;28;20026;-82
2022/07/11 11:25:50;;;;;;;1.98;1.02;;;;;;;18.76;69.93;99527.28;5016602;28;20049;-82
2022/07/11 11:28:23;;;;;;;2.25;1.08;;;;;;;19.04;68.55;99526.44;5034737;28;20051;-81
2022/07/11 11:30:57;;;;;;;0.77;0.75;;;;;;;18.43;69.81;99525.38;5015306;28;20130;-82
2022/07/11 11:33:25;;;;;;;3.33;1.05;;;;;;;18.64;70.29;99522.22;5036715;28;20025;-81
2022/07/11 11:36:01;;;;;;;4.45;1.05;;;;;;;19.58;68.03;99525.28;5020212;28;20034;-82
2022/07/11 11:38:28;;;;;;;1.23;1.13;;;;;;;19.81;68.40;99524.44;5034584;28;20088;-82
2022/07/11 11:40:53;;;;;;;0.70;0.70;;;;;;;19.64;68.05;99521.41;5038635;28;20034;-81
2022/07/11 11:43:22;;;;;;;1.10;1.00;;;;;;;19.47;68.28;99513.78;5024799;28;20033;-82